createdAt,value
2019-03-21T00:01:25.169Z,3.50
2019-03-21T00:03:55.998Z,4.50
2019-03-21T00:06:24.601Z,3.90
2019-03-21T00:08:53.182Z,4.10
2019-03-21T00:11:57.201Z,4.70
2019-03-21T00:14:48.248Z,3.30
2019-03-21T00:17:17.381Z,3.70
2019-03-21T00:19:45.961Z,3.57
2019-03-21T00:22:14.526Z,3.57
2019-03-21T00:24:42.907Z,3.90
2019-03-21T00:27:11.276Z,3.57
2019-03-21T00:29:39.727Z,3.60
2019-03-21T00:32:08.233Z,4.17
2019-03-21T00:34:36.782Z,4.07
2019-03-21T00:37:05.522Z,3.83
2019-03-21T00:39:33.903Z,4.10
2019-03-21T00:42:02.386Z,4.00
2019-03-21T00:44:31.129Z,4.17
2019-03-21T00:46:59.670Z,3.23
2019-03-21T00:49:28.445Z,4.17
2019-03-21T00:51:56.773Z,4.20
2019-03-21T00:54:25.366Z,3.67
2019-03-21T00:56:53.902Z,3.67
2019-03-21T00:59:22.378Z,3.40
2019-03-21T01:01:50.983Z,3.60
2019-03-21T01:04:20.519Z,4.00
2019-03-21T01:06:48.896Z,3.37
2019-03-21T01:09:17.396Z,3.90
2019-03-21T01:11:45.829Z,3.13
2019-03-21T01:14:14.260Z,4.10
2019-03-21T01:16:42.695Z,4.40
2019-03-21T01:19:11.271Z,4.47
2019-03-21T01:21:39.766Z,4.30
2019-03-21T01:24:07.984Z,4.20
2019-03-21T01:26:36.233Z,4.10
2019-03-21T01:29:04.637Z,3.90
2019-03-21T01:31:33.194Z,3.90
2019-03-21T01:34:01.814Z,3.50
2019-03-21T01:36:30.188Z,3.37
2019-03-21T01:38:58.815Z,3.43
2019-03-21T01:41:27.493Z,4.37
2019-03-21T01:43:55.900Z,4.53
2019-03-21T01:46:24.590Z,4.47
2019-03-21T01:48:53.008Z,4.53
2019-03-21T01:51:21.724Z,4.57
2019-03-21T01:53:50.345Z,4.47
2019-03-21T01:56:18.785Z,4.57
2019-03-21T01:58:47.244Z,4.90
2019-03-21T02:01:15.662Z,4.57
2019-03-21T02:03:44.313Z,4.67
2019-03-21T02:06:12.782Z,4.27
2019-03-21T02:08:41.337Z,4.17
2019-03-21T02:11:09.877Z,4.07
2019-03-21T02:13:38.466Z,3.53
2019-03-21T02:16:07.059Z,4.00
2019-03-21T02:18:36.810Z,3.60
2019-03-21T02:21:05.306Z,3.90
2019-03-21T02:23:34.047Z,3.50
2019-03-21T02:26:04.919Z,3.73
2019-03-21T02:28:33.418Z,3.77
2019-03-21T02:31:02.126Z,3.03
2019-03-21T02:33:31.522Z,3.33
2019-03-21T02:36:00.214Z,3.43
2019-03-21T02:38:28.712Z,3.90
2019-03-21T02:40:58.343Z,3.50
2019-03-21T02:43:27.938Z,3.57
2019-03-21T02:45:56.598Z,3.60
2019-03-21T02:48:25.098Z,3.57
2019-03-21T02:50:53.566Z,3.70
2019-03-21T02:53:22.227Z,3.87
2019-03-21T02:55:50.647Z,3.90
2019-03-21T02:58:19.257Z,3.50
2019-03-21T03:00:48.045Z,3.37
2019-03-21T03:03:16.517Z,3.27
2019-03-21T03:05:45.224Z,3.70
2019-03-21T03:08:13.814Z,4.20
2019-03-21T03:10:45.291Z,4.00
2019-03-21T03:13:13.970Z,3.97
2019-03-21T03:15:42.476Z,3.23
2019-03-21T03:18:12.066Z,4.73
2019-03-21T03:20:40.475Z,5.30
2019-03-21T03:23:09.159Z,4.07
2019-03-21T03:25:37.862Z,5.37
2019-03-21T03:28:12.434Z,4.80
2019-03-21T03:30:41.329Z,4.63
2019-03-21T03:33:09.872Z,4.43
2019-03-21T03:35:38.323Z,4.50
2019-03-21T03:38:06.995Z,4.27
2019-03-21T03:40:38.232Z,4.13
2019-03-21T03:43:06.867Z,3.97
2019-03-21T03:45:38.101Z,4.00
2019-03-21T03:48:05.964Z,3.73
2019-03-21T03:50:34.478Z,4.03
2019-03-21T03:53:03.074Z,3.77
2019-03-21T03:55:31.637Z,3.93
2019-03-21T03:58:00.671Z,3.83
2019-03-21T04:00:29.215Z,3.73
2019-03-21T04:02:57.893Z,4.07
2019-03-21T04:05:26.480Z,3.80
2019-03-21T04:07:55.966Z,3.50
2019-03-21T04:10:27.471Z,3.57
2019-03-21T04:12:56.081Z,4.13
2019-03-21T04:15:24.571Z,3.87
2019-03-21T04:17:53.118Z,3.10
2019-03-21T04:20:23.632Z,3.93
2019-03-21T04:22:52.096Z,4.07
2019-03-21T04:25:23.860Z,3.80
2019-03-21T04:27:52.290Z,3.97
2019-03-21T04:30:20.733Z,4.00
2019-03-21T04:32:49.329Z,4.13
2019-03-21T04:35:17.944Z,3.93
2019-03-21T04:37:46.413Z,3.90
2019-03-21T04:40:14.912Z,3.83
2019-03-21T04:42:43.627Z,3.83
2019-03-21T04:45:14.723Z,3.90
2019-03-21T04:47:42.830Z,3.80
2019-03-21T04:50:13.685Z,4.10
2019-03-21T04:52:41.838Z,4.57
2019-03-21T04:55:11.101Z,4.40
2019-03-21T04:57:39.246Z,4.00
2019-03-21T05:00:11.094Z,3.63
2019-03-21T05:02:39.303Z,4.17
2019-03-21T05:05:08.154Z,3.47
2019-03-21T05:07:36.398Z,4.20
2019-03-21T05:10:05.197Z,4.00
2019-03-21T05:12:33.606Z,4.13
2019-03-21T05:15:01.777Z,4.40
2019-03-21T05:17:29.999Z,4.23
2019-03-21T05:19:58.276Z,4.60
2019-03-21T05:22:26.891Z,4.33
2019-03-21T05:24:55.077Z,4.50
2019-03-21T05:27:23.255Z,3.30
2019-03-21T05:29:51.543Z,3.97
2019-03-21T05:32:19.931Z,4.13
2019-03-21T05:34:48.092Z,4.27
2019-03-21T05:37:16.360Z,4.03
2019-03-21T05:39:44.537Z,3.90
2019-03-21T05:42:16.975Z,3.87
2019-03-21T05:44:45.288Z,4.70
2019-03-21T05:47:13.564Z,4.23
2019-03-21T05:49:41.759Z,4.27
2019-03-21T05:52:10.747Z,4.90
2019-03-21T05:54:39.058Z,4.33
2019-03-21T05:57:07.369Z,4.07
2019-03-21T05:59:35.565Z,3.73
2019-03-21T06:02:03.875Z,4.10
2019-03-21T06:04:32.047Z,4.33
2019-03-21T06:07:31.492Z,4.40
2019-03-21T06:09:59.752Z,3.97
2019-03-21T06:12:27.925Z,3.77
2019-03-21T06:14:58.682Z,4.13
2019-03-21T06:17:27.237Z,3.83
2019-03-21T06:20:48.421Z,4.63
2019-03-21T06:23:53.634Z,3.60
2019-03-21T06:27:13.684Z,4.40
2019-03-21T06:29:33.061Z,4.00
2019-03-21T06:32:01.279Z,4.73
2019-03-21T06:34:29.418Z,4.70
2019-03-21T06:36:57.567Z,4.53
2019-03-21T06:39:25.763Z,4.03
2019-03-21T06:41:54.024Z,4.60
2019-03-21T06:44:22.214Z,4.23
2019-03-21T06:46:50.345Z,4.80
2019-03-21T06:49:19.394Z,4.63
2019-03-21T06:51:47.614Z,4.77
2019-03-21T06:54:15.791Z,4.03
2019-03-21T07:26:47.597Z,4.17
2019-03-21T07:29:15.721Z,4.50
2019-03-21T07:31:43.939Z,4.60
2019-03-21T07:34:12.202Z,3.90
2019-03-21T07:36:40.337Z,3.90
2019-03-21T07:39:09.685Z,4.43
2019-03-21T07:41:37.837Z,4.10
2019-03-21T07:44:05.990Z,4.13
2019-03-21T07:46:34.235Z,4.10
2019-03-21T07:49:02.528Z,4.70
2019-03-21T07:51:30.848Z,3.90
2019-03-21T07:53:59.027Z,3.73
2019-03-21T07:56:27.513Z,3.43
2019-03-21T07:58:57.716Z,3.50
2019-03-21T08:01:25.725Z,3.83
2019-03-21T08:03:53.936Z,3.33
2019-03-21T08:06:22.328Z,3.40
2019-03-21T08:08:50.598Z,3.50
2019-03-21T08:11:18.889Z,3.67
2019-03-21T08:13:47.147Z,3.40
2019-03-21T08:16:15.477Z,3.20
2019-03-21T08:18:43.905Z,3.20
2019-03-21T08:21:12.439Z,3.20
2019-03-21T08:23:42.978Z,3.27
2019-03-21T08:26:11.260Z,3.30
2019-03-21T08:28:39.635Z,3.43
2019-03-21T08:31:17.880Z,3.37
2019-03-21T08:33:46.203Z,3.73
2019-03-21T08:36:14.697Z,3.20
2019-03-21T08:38:43.322Z,3.23
2019-03-21T08:41:11.507Z,3.50
2019-03-21T08:43:39.693Z,3.80
2019-03-21T08:46:07.928Z,3.57
2019-03-21T08:48:36.424Z,3.77
2019-03-21T08:51:08.613Z,3.57
2019-03-21T08:53:34.601Z,3.57
2019-03-21T08:56:02.760Z,4.00
2019-03-21T08:58:32.121Z,3.80
2019-03-21T09:01:02.779Z,3.67
2019-03-21T09:03:31.107Z,3.50
2019-03-21T09:06:03.607Z,3.73
2019-03-21T09:08:31.806Z,3.60
2019-03-21T09:11:00.143Z,3.73
2019-03-21T09:13:28.414Z,4.60
2019-03-21T09:15:56.614Z,3.97
2019-03-21T09:18:25.245Z,3.33
2019-03-21T09:20:53.657Z,4.20
2019-03-21T09:23:21.839Z,4.27
2019-03-21T09:25:51.424Z,4.40
2019-03-21T09:28:20.539Z,4.00
2019-03-21T09:30:50.619Z,3.70
2019-03-21T09:33:18.783Z,4.47
2019-03-21T09:35:47.040Z,3.73
2019-03-21T09:38:15.961Z,4.00
2019-03-21T09:40:44.192Z,3.13
2019-03-21T09:43:12.534Z,4.20
2019-03-21T09:45:40.733Z,3.60
2019-03-21T09:48:08.839Z,3.73
2019-03-21T09:50:37.051Z,3.97
2019-03-21T09:53:05.333Z,3.90
2019-03-21T09:55:33.616Z,4.00
2019-03-21T09:58:01.808Z,3.80
2019-03-21T10:00:31.808Z,3.63
2019-03-21T10:03:06.011Z,3.80
2019-03-21T10:05:34.216Z,3.80
2019-03-21T10:08:02.778Z,4.37
2019-03-21T10:10:31.267Z,3.90
2019-03-21T10:12:59.402Z,3.50
2019-03-21T10:15:27.813Z,4.20
2019-03-21T10:17:56.072Z,3.57
2019-03-21T10:20:24.467Z,3.80
2019-03-21T10:22:52.653Z,3.30
2019-03-21T10:25:20.903Z,4.17
2019-03-21T10:27:49.491Z,4.13
2019-03-21T10:30:28.880Z,3.70
2019-03-21T10:32:57.140Z,3.87
2019-03-21T10:35:25.215Z,4.13
2019-03-21T10:37:53.473Z,3.90
2019-03-21T10:40:21.899Z,3.67
2019-03-21T10:42:49.987Z,4.23
2019-03-21T10:45:19.172Z,3.70
2019-03-21T10:47:48.687Z,3.97
2019-03-21T10:50:28.246Z,4.03
2019-03-21T10:53:02.132Z,4.10
2019-03-21T10:55:30.888Z,4.37
2019-03-21T10:58:02.410Z,3.77
2019-03-21T11:00:30.640Z,3.63
2019-03-21T11:02:58.853Z,4.07
2019-03-21T11:05:27.081Z,3.83
2019-03-21T11:07:55.222Z,4.27
2019-03-21T11:10:24.362Z,3.83
2019-03-21T11:12:52.552Z,3.80
2019-03-21T11:15:20.773Z,3.93
2019-03-21T11:17:49.092Z,3.63
2019-03-21T11:20:27.150Z,3.87
2019-03-21T11:22:55.888Z,3.97
2019-03-21T11:25:24.106Z,3.70
2019-03-21T11:27:52.647Z,3.93
2019-03-21T11:30:30.916Z,3.87
2019-03-21T11:32:59.424Z,3.87
2019-03-21T11:35:27.509Z,3.87
2019-03-21T11:37:55.619Z,4.33
2019-03-21T11:40:28.868Z,3.90
2019-03-21T11:42:57.378Z,4.23
2019-03-21T11:45:25.561Z,4.03
2019-03-21T11:47:53.898Z,3.47
2019-03-21T11:50:22.089Z,4.07
2019-03-21T11:52:50.269Z,4.10
2019-03-21T11:55:18.588Z,3.97
2019-03-21T11:57:46.768Z,3.87
2019-03-21T12:00:15.408Z,4.80
2019-03-21T12:02:44.218Z,4.00
2019-03-21T12:05:12.444Z,3.57
2019-03-21T12:07:40.572Z,4.20
2019-03-21T12:10:08.940Z,4.20
2019-03-21T12:12:37.399Z,4.37
2019-03-21T12:15:05.989Z,4.10
2019-03-21T12:17:34.100Z,4.30
2019-03-21T12:20:02.232Z,4.20
2019-03-21T12:22:30.607Z,4.47
2019-03-21T12:24:58.874Z,4.20
2019-03-21T12:27:27.041Z,3.97
2019-03-21T12:29:55.267Z,4.57
2019-03-21T12:32:28.248Z,15.97
2019-03-21T12:34:56.381Z,5.40
2019-03-21T12:37:24.526Z,4.30
2019-03-21T12:39:52.648Z,4.10
2019-03-21T12:42:20.822Z,3.93
2019-03-21T12:44:51.260Z,4.43
2019-03-21T12:47:33.177Z,3.87
2019-03-21T12:50:01.516Z,4.17
2019-03-21T12:54:59.764Z,4.00
2019-03-21T12:57:27.990Z,4.33
2019-03-21T12:59:56.206Z,3.73
2019-03-21T13:02:32.298Z,4.53
2019-03-21T13:04:59.077Z,4.40
2019-03-21T13:07:13.116Z,4.23
2019-03-21T13:08:33.364Z,4.83
2019-03-21T13:11:16.956Z,5.57
2019-03-21T13:13:56.996Z,4.80
2019-03-21T13:16:48.441Z,4.40
2019-03-21T13:19:23.475Z,4.27
2019-03-21T13:21:52.084Z,4.00
2019-03-21T13:24:20.614Z,4.57
2019-03-21T13:26:49.244Z,4.67
2019-03-21T13:29:18.536Z,4.80
2019-03-21T13:31:47.913Z,4.23
2019-03-21T13:34:16.032Z,4.37
2019-03-21T13:36:44.346Z,5.00
2019-03-21T13:39:15.243Z,4.80
2019-03-21T13:41:58.164Z,4.37
2019-03-21T13:44:26.486Z,4.50
2019-03-21T13:46:54.683Z,4.33
2019-03-21T13:49:26.789Z,4.57
2019-03-21T13:51:55.132Z,4.87
2019-03-21T13:54:23.442Z,4.73
2019-03-21T13:56:51.721Z,4.57
2019-03-21T13:59:20.142Z,4.80
2019-03-21T14:01:48.346Z,4.50
2019-03-21T14:04:24.547Z,4.70
2019-03-21T14:06:52.792Z,4.53
2019-03-21T14:09:21.191Z,4.83
2019-03-21T14:12:01.534Z,5.13
2019-03-21T14:14:29.779Z,4.40
2019-03-21T14:17:03.086Z,5.20
2019-03-21T14:19:32.899Z,4.60
2019-03-21T14:22:09.478Z,5.27
2019-03-21T14:24:38.312Z,5.20
2019-03-21T14:27:18.281Z,4.73
2019-03-21T14:29:46.544Z,5.50
2019-03-21T14:32:14.707Z,4.30
2019-03-21T14:34:42.913Z,4.00
2019-03-21T14:37:11.252Z,4.80
2019-03-21T14:39:39.443Z,5.23
2019-03-21T14:42:07.589Z,5.27
2019-03-21T14:44:36.297Z,5.10
2019-03-21T14:47:04.456Z,4.50
2019-03-21T14:49:32.632Z,4.47
2019-03-21T14:52:00.903Z,4.70
2019-03-21T14:54:29.351Z,5.10
2019-03-21T14:56:57.560Z,4.40
2019-03-21T14:59:36.843Z,4.70
2019-03-21T15:02:05.208Z,5.07
2019-03-21T15:04:33.346Z,4.27
2019-03-21T15:07:01.634Z,4.40
2019-03-21T15:09:44.466Z,4.13
2019-03-21T15:12:22.464Z,4.90
2019-03-21T15:14:50.804Z,4.40
2019-03-21T15:17:26.311Z,4.27
2019-03-21T15:20:02.319Z,4.80
2019-03-21T15:22:35.777Z,3.83
2019-03-21T15:25:04.704Z,4.30
2019-03-21T15:27:43.474Z,4.20
2019-03-21T15:30:16.692Z,3.60
2019-03-21T15:32:54.009Z,4.10
2019-03-21T15:35:35.128Z,4.70
2019-03-21T15:38:04.488Z,4.60
2019-03-21T15:40:32.675Z,4.27
2019-03-21T15:43:00.861Z,4.20
2019-03-21T15:45:29.232Z,8.77
2019-03-21T15:47:57.534Z,9.67
2019-03-21T15:50:30.461Z,6.67
2019-03-21T15:53:14.929Z,4.07
2019-03-21T15:55:50.907Z,4.20
2019-03-21T15:58:19.316Z,4.17
2019-03-21T16:00:48.586Z,4.40
2019-03-21T16:03:16.915Z,4.20
2019-03-21T16:05:54.737Z,4.10
2019-03-21T16:08:23.953Z,4.40
2019-03-21T16:10:57.414Z,6.43
2019-03-21T16:13:25.520Z,4.60
2019-03-21T16:15:53.868Z,4.53
2019-03-21T16:18:22.043Z,4.33
2019-03-21T16:20:50.133Z,5.20
2019-03-21T16:23:18.260Z,4.40
2019-03-21T16:25:48.470Z,5.13
2019-03-21T16:28:16.324Z,4.07
2019-03-21T16:30:44.462Z,4.87
2019-03-21T16:33:12.672Z,3.97
2019-03-21T16:35:40.829Z,4.97
2019-03-21T16:38:08.967Z,4.33
2019-03-21T16:40:37.220Z,4.00
2019-03-21T16:43:05.978Z,4.53
2019-03-21T16:45:34.220Z,3.93
2019-03-21T16:48:02.374Z,5.73
2019-03-21T16:50:30.647Z,5.60
2019-03-21T16:52:59.073Z,6.00
2019-03-21T16:55:27.611Z,5.50
2019-03-21T16:57:55.855Z,5.33
2019-03-21T17:00:24.008Z,5.53
2019-03-21T17:02:52.410Z,5.53
2019-03-21T17:05:22.322Z,4.70
2019-03-21T17:07:50.777Z,4.70
2019-03-21T17:10:18.949Z,5.40
2019-03-21T17:12:47.125Z,4.90
2019-03-21T17:15:15.581Z,4.60
2019-03-21T17:17:43.865Z,4.53
2019-03-21T17:20:12.261Z,4.50
2019-03-21T17:22:42.779Z,5.00
2019-03-21T17:25:11.169Z,5.13
2019-03-21T17:27:39.273Z,5.73
2019-03-21T17:30:07.838Z,5.17
2019-03-21T17:32:35.933Z,8.23
2019-03-21T17:35:04.567Z,5.53
2019-03-21T17:37:32.681Z,5.47
2019-03-21T17:40:00.796Z,4.90
2019-03-21T17:42:28.909Z,4.97
2019-03-21T17:44:57.007Z,5.40
2019-03-21T17:47:25.075Z,6.20
2019-03-21T17:49:53.227Z,5.63
2019-03-21T17:52:21.353Z,5.90
2019-03-21T17:54:49.553Z,5.70
2019-03-21T17:57:17.711Z,5.10
2019-03-21T17:59:45.923Z,6.30
2019-03-21T18:02:14.076Z,6.03
2019-03-21T18:04:42.298Z,5.80
2019-03-21T18:07:10.409Z,9.20
2019-03-21T18:09:38.555Z,7.10
2019-03-21T18:12:06.679Z,7.40
2019-03-21T18:14:34.918Z,6.30
2019-03-21T18:17:03.085Z,6.77
2019-03-21T18:19:31.285Z,5.93
2019-03-21T18:21:59.505Z,5.50
2019-03-21T18:24:34.103Z,5.27
2019-03-21T18:27:02.310Z,5.47
2019-03-21T18:29:30.591Z,6.57
2019-03-21T18:31:58.669Z,5.87
2019-03-21T18:34:26.933Z,5.40
2019-03-21T18:37:14.344Z,6.13
2019-03-21T18:39:44.641Z,6.50
2019-03-21T18:42:12.955Z,7.17
2019-03-21T18:44:41.138Z,6.70
2019-03-21T18:47:09.773Z,6.03
2019-03-21T18:49:37.894Z,6.87
2019-03-21T18:52:09.379Z,6.60
2019-03-21T18:54:38.614Z,6.60
2019-03-21T18:57:08.019Z,6.83
2019-03-21T18:59:36.577Z,7.03
2019-03-21T19:02:04.861Z,8.00
2019-03-21T19:04:33.104Z,6.67
2019-03-21T19:07:01.406Z,6.33
2019-03-21T19:09:29.704Z,7.03
2019-03-21T19:11:57.875Z,6.90
2019-03-21T19:14:26.104Z,7.73
2019-03-21T19:16:54.352Z,7.27
2019-03-21T19:19:22.618Z,7.97
2019-03-21T19:21:55.147Z,7.20
2019-03-21T19:24:24.447Z,7.50
2019-03-21T19:26:54.137Z,7.40
2019-03-21T19:29:24.244Z,7.70
2019-03-21T19:31:52.610Z,7.63
2019-03-21T19:34:20.963Z,7.33
2019-03-21T19:36:49.312Z,7.50
2019-03-21T19:39:17.741Z,7.40
2019-03-21T19:41:46.049Z,8.50
2019-03-21T19:44:14.560Z,8.50
2019-03-21T19:46:42.985Z,7.87
2019-03-21T19:49:11.342Z,8.47
2019-03-21T19:51:39.504Z,7.93
2019-03-21T19:54:07.756Z,8.63
2019-03-21T19:56:36.293Z,8.33
2019-03-21T19:59:04.630Z,9.07
2019-03-21T20:01:33.117Z,7.70
2019-03-21T20:04:01.399Z,7.77
2019-03-21T20:06:29.702Z,8.17
2019-03-21T20:08:58.152Z,8.73
2019-03-21T20:11:27.426Z,8.37
2019-03-21T20:13:55.802Z,8.20
2019-03-21T20:16:24.400Z,7.73
2019-03-21T20:18:52.853Z,8.20
2019-03-21T20:21:21.671Z,8.80
2019-03-21T20:23:49.961Z,8.10
2019-03-21T20:26:18.469Z,8.97
2019-03-21T20:28:46.932Z,10.00
2019-03-21T20:31:15.437Z,9.33
2019-03-21T20:33:44.789Z,8.60
2019-03-21T20:36:13.227Z,8.37
2019-03-21T20:38:42.798Z,8.07
2019-03-21T20:41:11.255Z,7.87
2019-03-21T20:43:39.827Z,7.53
2019-03-21T20:46:08.356Z,8.40
2019-03-21T20:48:35.091Z,8.13
2019-03-21T20:51:03.826Z,8.50
2019-03-21T20:53:32.342Z,8.20
2019-03-21T20:56:00.767Z,7.73
2019-03-21T20:58:29.803Z,9.57
2019-03-21T21:00:58.271Z,8.40
2019-03-21T21:03:26.871Z,9.27
2019-03-21T21:05:55.377Z,8.23
2019-03-21T21:08:23.668Z,8.83
2019-03-21T21:10:52.415Z,8.67
2019-03-21T21:13:21.092Z,8.10
2019-03-21T21:15:49.473Z,8.23
2019-03-21T21:18:18.048Z,7.87
2019-03-21T21:20:46.741Z,7.60
2019-03-21T21:23:15.437Z,8.97
2019-03-21T21:25:43.923Z,8.87
2019-03-21T21:28:13.496Z,9.47
2019-03-21T21:30:41.873Z,8.60
2019-03-21T21:33:10.403Z,8.67
2019-03-21T21:35:39.538Z,8.77
2019-03-21T21:38:10.715Z,9.37
2019-03-21T21:40:40.893Z,9.57
2019-03-21T21:43:10.124Z,9.37
2019-03-21T21:45:40.977Z,8.37
2019-03-21T21:48:09.642Z,7.97
2019-03-21T21:50:38.357Z,8.70
2019-03-21T21:53:07.055Z,7.73
2019-03-21T21:55:35.645Z,8.20
2019-03-21T21:58:04.527Z,8.17
2019-03-21T22:00:33.288Z,8.57
2019-03-21T22:03:03.741Z,8.27
2019-03-21T22:05:32.496Z,8.20
2019-03-21T22:08:02.011Z,8.03
2019-03-21T22:10:30.883Z,8.10
2019-03-21T22:12:59.332Z,8.70
2019-03-21T22:15:28.115Z,8.80
2019-03-21T22:17:56.382Z,8.23
2019-03-21T22:20:25.239Z,8.73
2019-03-21T22:22:53.643Z,8.20
2019-03-21T22:25:22.360Z,8.23
2019-03-21T22:27:51.123Z,8.30
2019-03-21T22:30:20.182Z,8.57
2019-03-21T22:32:48.688Z,8.97
2019-03-21T22:35:17.454Z,8.87
2019-03-21T22:37:46.371Z,8.33
2019-03-21T22:40:16.107Z,9.37
2019-03-21T22:42:45.184Z,9.40
2019-03-21T22:45:13.882Z,8.97
2019-03-21T22:47:43.446Z,9.50
2019-03-21T22:50:14.912Z,9.67
2019-03-21T22:52:43.913Z,10.10
2019-03-21T22:55:12.602Z,9.10
2019-03-21T22:57:42.086Z,9.30
2019-03-21T23:00:13.326Z,8.63
2019-03-21T23:02:42.662Z,7.97
2019-03-21T23:05:11.535Z,7.17
2019-03-21T23:07:40.840Z,7.73
2019-03-21T23:10:09.553Z,7.57
2019-03-21T23:12:38.723Z,8.00
2019-03-21T23:20:57.905Z,9.03
2019-03-21T23:23:26.070Z,8.97
2019-03-21T23:25:54.154Z,8.43
2019-03-21T23:28:22.366Z,9.03
2019-03-21T23:30:53.803Z,8.43
2019-03-21T23:33:21.874Z,8.17
2019-03-21T23:35:50.392Z,8.90
2019-03-21T23:38:18.534Z,9.33
2019-03-21T23:40:46.695Z,8.47
2019-03-21T23:43:14.810Z,8.27
2019-03-21T23:45:42.963Z,8.60
2019-03-21T23:48:11.136Z,9.20
2019-03-21T23:50:39.310Z,8.90
2019-03-21T23:53:07.461Z,9.30
2019-03-21T23:55:35.609Z,8.17
2019-03-21T23:58:03.788Z,8.80
